sensor_id;sensor_type;location;lat;lon;timestamp;P1;durP1;ratioP1;P2;durP2;ratioP2
38132;SDS011;23948;43.252;26.572;2022-08-25T00:01:08;22.52;;;6.57;;
38132;SDS011;23948;43.252;26.572;2022-08-25T00:03:34;19.92;;;6.40;;
38132;SDS011;23948;43.252;26.572;2022-08-25T00:06:00;19.00;;;6.60;;
38132;SDS011;23948;43.252;26.572;2022-08-25T00:08:25;22.05;;;6.75;;
38132;SDS011;23948;43.252;26.572;2022-08-25T00:10:50;18.27;;;6.82;;
38132;SDS011;23948;43.252;26.572;2022-08-25T00:13:15;23.35;;;7.13;;
38132;SDS011;23948;43.252;26.572;2022-08-25T00:15:41;19.65;;;7.07;;
38132;SDS011;23948;43.252;26.572;2022-08-25T00:18:06;22.10;;;6.68;;
38132;SDS011;23948;43.252;26.572;2022-08-25T00:20:31;16.27;;;6.60;;
38132;SDS011;23948;43.252;26.572;2022-08-25T00:22:57;24.50;;;6.93;;
38132;SDS011;23948;43.252;26.572;2022-08-25T00:25:22;19.25;;;6.90;;
38132;SDS011;23948;43.252;26.572;2022-08-25T00:27:48;27.08;;;7.18;;
38132;SDS011;23948;43.252;26.572;2022-08-25T00:30:14;20.88;;;7.00;;
38132;SDS011;23948;43.252;26.572;2022-08-25T00:32:40;20.08;;;7.53;;
38132;SDS011;23948;43.252;26.572;2022-08-25T00:35:06;19.27;;;7.00;;
38132;SDS011;23948;43.252;26.572;2022-08-25T00:37:31;17.77;;;6.70;;
38132;SDS011;23948;43.252;26.572;2022-08-25T00:39:56;19.27;;;7.05;;
38132;SDS011;23948;43.252;26.572;2022-08-25T00:42:23;16.85;;;6.68;;
38132;SDS011;23948;43.252;26.572;2022-08-25T00:44:48;33.38;;;7.30;;
38132;SDS011;23948;43.252;26.572;2022-08-25T00:47:14;19.58;;;7.35;;
38132;SDS011;23948;43.252;26.572;2022-08-25T00:49:44;18.40;;;6.47;;
38132;SDS011;23948;43.252;26.572;2022-08-25T00:54:38;22.75;;;7.45;;
38132;SDS011;23948;43.252;26.572;2022-08-25T00:57:05;19.77;;;7.15;;
38132;SDS011;23948;43.252;26.572;2022-08-25T00:59:31;20.15;;;7.15;;
38132;SDS011;23948;43.252;26.572;2022-08-25T01:01:57;17.73;;;6.60;;
38132;SDS011;23948;43.252;26.572;2022-08-25T01:04:22;17.40;;;6.70;;
38132;SDS011;23948;43.252;26.572;2022-08-25T01:06:48;25.55;;;7.15;;
38132;SDS011;23948;43.252;26.572;2022-08-25T01:09:13;17.95;;;6.40;;
38132;SDS011;23948;43.252;26.572;2022-08-25T01:11:40;15.75;;;5.97;;
38132;SDS011;23948;43.252;26.572;2022-08-25T01:14:06;21.88;;;6.78;;
38132;SDS011;23948;43.252;26.572;2022-08-25T01:16:35;20.08;;;7.15;;
38132;SDS011;23948;43.252;26.572;2022-08-25T01:19:00;18.38;;;6.65;;
38132;SDS011;23948;43.252;26.572;2022-08-25T01:21:27;18.83;;;6.97;;
38132;SDS011;23948;43.252;26.572;2022-08-25T01:23:53;22.73;;;6.72;;
38132;SDS011;23948;43.252;26.572;2022-08-25T01:26:23;17.88;;;6.78;;
38132;SDS011;23948;43.252;26.572;2022-08-25T01:28:49;22.17;;;6.80;;
38132;SDS011;23948;43.252;26.572;2022-08-25T01:31:34;19.52;;;6.57;;
38132;SDS011;23948;43.252;26.572;2022-08-25T01:34:00;22.52;;;7.00;;
38132;SDS011;23948;43.252;26.572;2022-08-25T01:36:26;21.75;;;6.75;;
38132;SDS011;23948;43.252;26.572;2022-08-25T01:38:52;17.42;;;7.30;;
38132;SDS011;23948;43.252;26.572;2022-08-25T01:43:58;22.65;;;7.53;;
38132;SDS011;23948;43.252;26.572;2022-08-25T01:46:23;19.98;;;6.63;;
38132;SDS011;23948;43.252;26.572;2022-08-25T01:48:49;31.67;;;8.52;;
38132;SDS011;23948;43.252;26.572;2022-08-25T01:51:14;26.70;;;8.10;;
38132;SDS011;23948;43.252;26.572;2022-08-25T01:53:40;25.10;;;8.18;;
38132;SDS011;23948;43.252;26.572;2022-08-25T01:56:07;24.52;;;8.00;;
38132;SDS011;23948;43.252;26.572;2022-08-25T01:58:34;23.45;;;7.90;;
38132;SDS011;23948;43.252;26.572;2022-08-25T02:01:01;17.85;;;7.65;;
38132;SDS011;23948;43.252;26.572;2022-08-25T02:03:27;17.17;;;7.30;;
38132;SDS011;23948;43.252;26.572;2022-08-25T02:05:53;21.80;;;7.63;;
38132;SDS011;23948;43.252;26.572;2022-08-25T02:08:19;18.10;;;7.90;;
38132;SDS011;23948;43.252;26.572;2022-08-25T02:10:44;30.00;;;7.70;;
38132;SDS011;23948;43.252;26.572;2022-08-25T02:13:10;20.33;;;8.05;;
38132;SDS011;23948;43.252;26.572;2022-08-25T02:15:44;25.77;;;8.07;;
38132;SDS011;23948;43.252;26.572;2022-08-25T02:18:10;19.67;;;7.80;;
38132;SDS011;23948;43.252;26.572;2022-08-25T02:20:35;20.80;;;7.70;;
38132;SDS011;23948;43.252;26.572;2022-08-25T02:23:01;20.65;;;8.00;;
38132;SDS011;23948;43.252;26.572;2022-08-25T02:25:26;20.38;;;8.10;;
38132;SDS011;23948;43.252;26.572;2022-08-25T02:27:52;23.42;;;8.07;;
38132;SDS011;23948;43.252;26.572;2022-08-25T02:30:17;20.80;;;8.13;;
38132;SDS011;23948;43.252;26.572;2022-08-25T02:32:42;23.20;;;8.00;;
38132;SDS011;23948;43.252;26.572;2022-08-25T02:35:08;24.13;;;7.93;;
38132;SDS011;23948;43.252;26.572;2022-08-25T02:37:33;19.33;;;8.05;;
38132;SDS011;23948;43.252;26.572;2022-08-25T02:39:59;18.05;;;7.85;;
38132;SDS011;23948;43.252;26.572;2022-08-25T02:42:24;24.80;;;8.27;;
38132;SDS011;23948;43.252;26.572;2022-08-25T02:44:50;23.55;;;7.85;;
38132;SDS011;23948;43.252;26.572;2022-08-25T02:47:16;27.60;;;8.43;;
38132;SDS011;23948;43.252;26.572;2022-08-25T02:49:41;14.35;;;7.03;;
38132;SDS011;23948;43.252;26.572;2022-08-25T02:52:06;21.65;;;8.00;;
38132;SDS011;23948;43.252;26.572;2022-08-25T02:54:32;21.02;;;7.47;;
38132;SDS011;23948;43.252;26.572;2022-08-25T02:56:57;17.60;;;7.53;;
38132;SDS011;23948;43.252;26.572;2022-08-25T02:59:23;22.23;;;8.18;;
38132;SDS011;23948;43.252;26.572;2022-08-25T03:01:49;21.95;;;8.35;;
38132;SDS011;23948;43.252;26.572;2022-08-25T03:04:14;31.02;;;8.40;;
38132;SDS011;23948;43.252;26.572;2022-08-25T03:06:39;28.08;;;8.18;;
38132;SDS011;23948;43.252;26.572;2022-08-25T03:09:05;24.67;;;8.65;;
38132;SDS011;23948;43.252;26.572;2022-08-25T03:11:30;25.75;;;8.18;;
38132;SDS011;23948;43.252;26.572;2022-08-25T03:13:55;24.92;;;8.70;;
38132;SDS011;23948;43.252;26.572;2022-08-25T03:16:21;24.38;;;8.45;;
38132;SDS011;23948;43.252;26.572;2022-08-25T03:18:46;19.58;;;8.13;;
38132;SDS011;23948;43.252;26.572;2022-08-25T03:21:12;22.40;;;8.93;;
38132;SDS011;23948;43.252;26.572;2022-08-25T03:23:38;20.85;;;8.82;;
38132;SDS011;23948;43.252;26.572;2022-08-25T03:26:04;31.42;;;9.32;;
38132;SDS011;23948;43.252;26.572;2022-08-25T03:28:48;24.98;;;8.57;;
38132;SDS011;23948;43.252;26.572;2022-08-25T03:31:13;19.40;;;8.27;;
38132;SDS011;23948;43.252;26.572;2022-08-25T03:33:38;14.38;;;7.55;;
38132;SDS011;23948;43.252;26.572;2022-08-25T03:36:05;21.13;;;8.48;;
38132;SDS011;23948;43.252;26.572;2022-08-25T03:38:30;26.13;;;8.98;;
38132;SDS011;23948;43.252;26.572;2022-08-25T03:40:55;18.33;;;8.43;;
38132;SDS011;23948;43.252;26.572;2022-08-25T03:43:21;23.40;;;8.75;;
38132;SDS011;23948;43.252;26.572;2022-08-25T03:45:46;24.48;;;8.63;;
38132;SDS011;23948;43.252;26.572;2022-08-25T03:48:12;24.80;;;8.52;;
38132;SDS011;23948;43.252;26.572;2022-08-25T03:50:42;27.30;;;8.68;;
38132;SDS011;23948;43.252;26.572;2022-08-25T03:53:08;25.67;;;9.13;;
38132;SDS011;23948;43.252;26.572;2022-08-25T03:55:33;23.25;;;8.88;;
38132;SDS011;23948;43.252;26.572;2022-08-25T03:57:59;23.70;;;8.80;;
38132;SDS011;23948;43.252;26.572;2022-08-25T04:00:27;21.90;;;8.38;;
38132;SDS011;23948;43.252;26.572;2022-08-25T04:02:52;23.55;;;8.75;;
38132;SDS011;23948;43.252;26.572;2022-08-25T04:05:18;25.60;;;8.10;;
38132;SDS011;23948;43.252;26.572;2022-08-25T04:07:44;31.70;;;9.82;;
38132;SDS011;23948;43.252;26.572;2022-08-25T04:10:10;27.42;;;9.25;;
38132;SDS011;23948;43.252;26.572;2022-08-25T04:12:36;26.20;;;9.05;;
38132;SDS011;23948;43.252;26.572;2022-08-25T04:15:03;22.92;;;9.40;;
38132;SDS011;23948;43.252;26.572;2022-08-25T04:17:28;24.65;;;9.50;;
38132;SDS011;23948;43.252;26.572;2022-08-25T04:19:54;27.52;;;9.95;;
38132;SDS011;23948;43.252;26.572;2022-08-25T04:22:19;31.52;;;9.80;;
38132;SDS011;23948;43.252;26.572;2022-08-25T04:24:45;26.30;;;9.73;;
38132;SDS011;23948;43.252;26.572;2022-08-25T04:27:10;23.15;;;9.88;;
38132;SDS011;23948;43.252;26.572;2022-08-25T04:29:35;25.48;;;10.18;;
38132;SDS011;23948;43.252;26.572;2022-08-25T04:32:01;27.58;;;10.00;;
38132;SDS011;23948;43.252;26.572;2022-08-25T04:34:26;24.52;;;9.50;;
38132;SDS011;23948;43.252;26.572;2022-08-25T04:36:51;26.42;;;9.40;;
38132;SDS011;23948;43.252;26.572;2022-08-25T04:39:17;26.58;;;9.38;;
38132;SDS011;23948;43.252;26.572;2022-08-25T04:41:44;25.05;;;9.85;;
38132;SDS011;23948;43.252;26.572;2022-08-25T04:44:10;39.33;;;24.90;;
38132;SDS011;23948;43.252;26.572;2022-08-25T04:46:36;42.20;;;15.52;;
38132;SDS011;23948;43.252;26.572;2022-08-25T04:49:02;35.60;;;8.88;;
38132;SDS011;23948;43.252;26.572;2022-08-25T04:51:29;37.50;;;8.77;;
38132;SDS011;23948;43.252;26.572;2022-08-25T04:53:57;30.38;;;7.88;;
38132;SDS011;23948;43.252;26.572;2022-08-25T04:56:23;39.05;;;7.93;;
38132;SDS011;23948;43.252;26.572;2022-08-25T04:58:49;23.92;;;6.93;;
38132;SDS011;23948;43.252;26.572;2022-08-25T05:01:16;48.50;;;8.20;;
38132;SDS011;23948;43.252;26.572;2022-08-25T05:03:42;34.10;;;7.53;;
38132;SDS011;23948;43.252;26.572;2022-08-25T05:06:07;37.45;;;7.25;;
38132;SDS011;23948;43.252;26.572;2022-08-25T05:08:32;25.17;;;6.63;;
38132;SDS011;23948;43.252;26.572;2022-08-25T05:10:58;35.10;;;6.55;;
38132;SDS011;23948;43.252;26.572;2022-08-25T05:13:24;36.67;;;7.85;;
38132;SDS011;23948;43.252;26.572;2022-08-25T05:15:56;40.03;;;7.63;;
38132;SDS011;23948;43.252;26.572;2022-08-25T05:18:23;32.55;;;7.43;;
38132;SDS011;23948;43.252;26.572;2022-08-25T05:20:49;36.30;;;6.43;;
38132;SDS011;23948;43.252;26.572;2022-08-25T05:23:18;27.80;;;7.05;;
38132;SDS011;23948;43.252;26.572;2022-08-25T05:25:47;29.85;;;6.90;;
38132;SDS011;23948;43.252;26.572;2022-08-25T05:28:13;38.92;;;7.05;;
38132;SDS011;23948;43.252;26.572;2022-08-25T05:30:39;38.60;;;7.63;;
38132;SDS011;23948;43.252;26.572;2022-08-25T05:33:05;26.73;;;6.35;;
38132;SDS011;23948;43.252;26.572;2022-08-25T05:35:30;35.88;;;7.15;;
38132;SDS011;23948;43.252;26.572;2022-08-25T05:37:56;35.42;;;7.53;;
38132;SDS011;23948;43.252;26.572;2022-08-25T05:40:21;33.70;;;7.50;;
38132;SDS011;23948;43.252;26.572;2022-08-25T05:42:47;34.70;;;7.50;;
38132;SDS011;23948;43.252;26.572;2022-08-25T05:45:12;34.13;;;7.90;;
38132;SDS011;23948;43.252;26.572;2022-08-25T05:47:38;29.50;;;7.38;;
38132;SDS011;23948;43.252;26.572;2022-08-25T05:50:04;31.50;;;7.32;;
38132;SDS011;23948;43.252;26.572;2022-08-25T05:52:29;27.85;;;6.82;;
38132;SDS011;23948;43.252;26.572;2022-08-25T05:54:54;37.38;;;8.13;;
38132;SDS011;23948;43.252;26.572;2022-08-25T05:57:20;33.28;;;7.43;;
38132;SDS011;23948;43.252;26.572;2022-08-25T05:59:45;29.70;;;6.68;;
38132;SDS011;23948;43.252;26.572;2022-08-25T06:02:10;29.85;;;7.32;;
38132;SDS011;23948;43.252;26.572;2022-08-25T06:04:55;31.30;;;6.80;;
38132;SDS011;23948;43.252;26.572;2022-08-25T06:07:22;39.90;;;7.75;;
38132;SDS011;23948;43.252;26.572;2022-08-25T06:09:48;33.85;;;6.70;;
38132;SDS011;23948;43.252;26.572;2022-08-25T06:12:14;35.50;;;7.20;;
38132;SDS011;23948;43.252;26.572;2022-08-25T06:14:39;30.52;;;6.60;;
38132;SDS011;23948;43.252;26.572;2022-08-25T06:17:05;31.42;;;6.50;;
38132;SDS011;23948;43.252;26.572;2022-08-25T06:19:31;33.50;;;6.63;;
38132;SDS011;23948;43.252;26.572;2022-08-25T06:21:56;35.30;;;7.18;;
38132;SDS011;23948;43.252;26.572;2022-08-25T06:24:25;28.65;;;7.30;;
38132;SDS011;23948;43.252;26.572;2022-08-25T06:26:51;37.30;;;6.18;;
38132;SDS011;23948;43.252;26.572;2022-08-25T06:29:17;30.23;;;6.07;;
38132;SDS011;23948;43.252;26.572;2022-08-25T06:31:43;35.10;;;5.90;;
38132;SDS011;23948;43.252;26.572;2022-08-25T06:34:09;32.95;;;6.35;;
38132;SDS011;23948;43.252;26.572;2022-08-25T06:36:34;32.53;;;7.10;;
38132;SDS011;23948;43.252;26.572;2022-08-25T06:39:00;29.25;;;6.55;;
38132;SDS011;23948;43.252;26.572;2022-08-25T06:41:25;30.95;;;6.03;;
38132;SDS011;23948;43.252;26.572;2022-08-25T06:43:51;24.00;;;6.75;;
38132;SDS011;23948;43.252;26.572;2022-08-25T06:46:18;23.52;;;6.05;;
38132;SDS011;23948;43.252;26.572;2022-08-25T06:48:44;36.15;;;7.03;;
38132;SDS011;23948;43.252;26.572;2022-08-25T06:51:11;28.92;;;6.57;;
38132;SDS011;23948;43.252;26.572;2022-08-25T06:53:36;29.65;;;5.95;;
38132;SDS011;23948;43.252;26.572;2022-08-25T06:56:03;30.05;;;6.53;;
38132;SDS011;23948;43.252;26.572;2022-08-25T06:58:29;24.38;;;5.88;;
38132;SDS011;23948;43.252;26.572;2022-08-25T07:00:54;35.90;;;6.28;;
38132;SDS011;23948;43.252;26.572;2022-08-25T07:03:20;34.00;;;5.88;;
38132;SDS011;23948;43.252;26.572;2022-08-25T07:05:52;24.25;;;5.60;;
38132;SDS011;23948;43.252;26.572;2022-08-25T07:08:17;29.70;;;6.32;;
38132;SDS011;23948;43.252;26.572;2022-08-25T07:10:43;25.20;;;5.72;;
38132;SDS011;23948;43.252;26.572;2022-08-25T07:13:08;23.27;;;5.50;;
38132;SDS011;23948;43.252;26.572;2022-08-25T07:15:37;25.25;;;5.78;;
38132;SDS011;23948;43.252;26.572;2022-08-25T07:18:02;30.95;;;5.88;;
38132;SDS011;23948;43.252;26.572;2022-08-25T07:20:27;35.60;;;6.95;;
38132;SDS011;23948;43.252;26.572;2022-08-25T07:22:53;28.90;;;5.47;;
38132;SDS011;23948;43.252;26.572;2022-08-25T07:25:19;25.33;;;5.72;;
38132;SDS011;23948;43.252;26.572;2022-08-25T07:27:44;25.65;;;5.85;;
38132;SDS011;23948;43.252;26.572;2022-08-25T07:30:10;30.92;;;5.60;;
38132;SDS011;23948;43.252;26.572;2022-08-25T07:32:35;27.80;;;5.82;;
38132;SDS011;23948;43.252;26.572;2022-08-25T07:35:00;26.60;;;5.97;;
38132;SDS011;23948;43.252;26.572;2022-08-25T07:37:52;28.60;;;5.22;;
38132;SDS011;23948;43.252;26.572;2022-08-25T07:40:30;29.17;;;5.65;;
38132;SDS011;23948;43.252;26.572;2022-08-25T07:42:57;26.75;;;5.50;;
38132;SDS011;23948;43.252;26.572;2022-08-25T07:45:24;30.42;;;6.07;;
38132;SDS011;23948;43.252;26.572;2022-08-25T07:50:22;24.17;;;6.17;;
38132;SDS011;23948;43.252;26.572;2022-08-25T07:52:48;28.65;;;6.32;;
38132;SDS011;23948;43.252;26.572;2022-08-25T07:55:13;27.48;;;6.00;;
38132;SDS011;23948;43.252;26.572;2022-08-25T07:57:39;34.70;;;5.97;;
38132;SDS011;23948;43.252;26.572;2022-08-25T08:00:05;32.17;;;6.72;;
38132;SDS011;23948;43.252;26.572;2022-08-25T08:02:31;39.63;;;6.20;;
38132;SDS011;23948;43.252;26.572;2022-08-25T08:04:56;30.45;;;5.97;;
38132;SDS011;23948;43.252;26.572;2022-08-25T08:07:23;23.77;;;5.40;;
38132;SDS011;23948;43.252;26.572;2022-08-25T08:09:49;31.15;;;6.15;;
38132;SDS011;23948;43.252;26.572;2022-08-25T08:12:22;27.95;;;6.65;;
38132;SDS011;23948;43.252;26.572;2022-08-25T08:14:48;28.83;;;6.07;;
38132;SDS011;23948;43.252;26.572;2022-08-25T08:17:13;24.95;;;7.15;;
38132;SDS011;23948;43.252;26.572;2022-08-25T08:19:42;22.57;;;5.63;;
38132;SDS011;23948;43.252;26.572;2022-08-25T08:22:07;34.13;;;6.30;;
38132;SDS011;23948;43.252;26.572;2022-08-25T08:24:35;28.48;;;5.68;;
38132;SDS011;23948;43.252;26.572;2022-08-25T08:27:04;28.83;;;6.00;;
38132;SDS011;23948;43.252;26.572;2022-08-25T08:29:29;31.70;;;5.07;;
38132;SDS011;23948;43.252;26.572;2022-08-25T08:31:55;33.65;;;6.28;;
38132;SDS011;23948;43.252;26.572;2022-08-25T08:34:20;31.20;;;5.63;;
38132;SDS011;23948;43.252;26.572;2022-08-25T08:36:47;23.17;;;5.03;;
38132;SDS011;23948;43.252;26.572;2022-08-25T08:39:13;29.75;;;5.45;;
38132;SDS011;23948;43.252;26.572;2022-08-25T08:41:44;19.67;;;4.72;;
38132;SDS011;23948;43.252;26.572;2022-08-25T08:44:41;29.55;;;4.63;;
38132;SDS011;23948;43.252;26.572;2022-08-25T08:49:45;22.08;;;4.65;;
38132;SDS011;23948;43.252;26.572;2022-08-25T08:52:14;30.20;;;4.90;;
38132;SDS011;23948;43.252;26.572;2022-08-25T08:54:40;18.73;;;4.55;;
38132;SDS011;23948;43.252;26.572;2022-08-25T09:00:07;26.10;;;4.97;;
38132;SDS011;23948;43.252;26.572;2022-08-25T09:02:34;26.25;;;4.65;;
38132;SDS011;23948;43.252;26.572;2022-08-25T09:05:02;26.55;;;5.53;;
38132;SDS011;23948;43.252;26.572;2022-08-25T09:07:35;30.17;;;4.93;;
38132;SDS011;23948;43.252;26.572;2022-08-25T09:10:02;24.50;;;4.57;;
38132;SDS011;23948;43.252;26.572;2022-08-25T09:23:20;23.67;;;4.83;;
38132;SDS011;23948;43.252;26.572;2022-08-25T09:28:36;24.25;;;4.72;;
38132;SDS011;23948;43.252;26.572;2022-08-25T09:33:35;25.83;;;5.38;;
38132;SDS011;23948;43.252;26.572;2022-08-25T09:36:01;16.87;;;4.43;;
38132;SDS011;23948;43.252;26.572;2022-08-25T09:38:27;24.88;;;5.28;;
38132;SDS011;23948;43.252;26.572;2022-08-25T09:40:55;25.48;;;5.13;;
38132;SDS011;23948;43.252;26.572;2022-08-25T09:43:29;21.70;;;3.97;;
38132;SDS011;23948;43.252;26.572;2022-08-25T09:48:46;24.50;;;4.80;;
38132;SDS011;23948;43.252;26.572;2022-08-25T09:51:16;29.45;;;4.60;;
38132;SDS011;23948;43.252;26.572;2022-08-25T09:53:45;29.10;;;4.97;;
38132;SDS011;23948;43.252;26.572;2022-08-25T09:56:12;25.70;;;4.63;;
38132;SDS011;23948;43.252;26.572;2022-08-25T09:58:38;25.80;;;4.90;;
38132;SDS011;23948;43.252;26.572;2022-08-25T10:01:24;24.95;;;4.80;;
38132;SDS011;23948;43.252;26.572;2022-08-25T10:03:54;26.05;;;4.68;;
38132;SDS011;23948;43.252;26.572;2022-08-25T10:06:20;28.67;;;5.05;;
38132;SDS011;23948;43.252;26.572;2022-08-25T10:11:11;17.45;;;3.97;;
38132;SDS011;23948;43.252;26.572;2022-08-25T10:13:43;25.80;;;5.22;;
38132;SDS011;23948;43.252;26.572;2022-08-25T10:16:11;20.55;;;4.80;;
38132;SDS011;23948;43.252;26.572;2022-08-25T10:18:37;25.45;;;5.03;;
38132;SDS011;23948;43.252;26.572;2022-08-25T10:23:31;19.67;;;4.15;;
38132;SDS011;23948;43.252;26.572;2022-08-25T10:26:12;23.38;;;5.35;;
38132;SDS011;23948;43.252;26.572;2022-08-25T10:31:22;19.33;;;4.00;;
38132;SDS011;23948;43.252;26.572;2022-08-25T10:36:21;22.80;;;5.60;;
38132;SDS011;23948;43.252;26.572;2022-08-25T10:38:53;16.65;;;4.82;;
38132;SDS011;23948;43.252;26.572;2022-08-25T10:49:44;16.30;;;4.45;;
38132;SDS011;23948;43.252;26.572;2022-08-25T10:52:22;23.08;;;4.53;;
38132;SDS011;23948;43.252;26.572;2022-08-25T11:00:07;20.80;;;4.50;;
38132;SDS011;23948;43.252;26.572;2022-08-25T11:07:47;16.70;;;3.60;;
38132;SDS011;23948;43.252;26.572;2022-08-25T11:10:19;22.83;;;4.25;;
38132;SDS011;23948;43.252;26.572;2022-08-25T11:12:56;18.95;;;4.47;;
38132;SDS011;23948;43.252;26.572;2022-08-25T11:20:18;16.27;;;3.90;;
38132;SDS011;23948;43.252;26.572;2022-08-25T11:22:58;18.03;;;4.13;;
38132;SDS011;23948;43.252;26.572;2022-08-25T11:25:34;23.13;;;4.25;;
38132;SDS011;23948;43.252;26.572;2022-08-25T11:28:09;15.07;;;3.60;;
38132;SDS011;23948;43.252;26.572;2022-08-25T11:30:36;17.58;;;4.13;;
38132;SDS011;23948;43.252;26.572;2022-08-25T11:33:02;16.65;;;3.58;;
38132;SDS011;23948;43.252;26.572;2022-08-25T11:38:01;21.73;;;3.78;;
38132;SDS011;23948;43.252;26.572;2022-08-25T11:40:37;22.55;;;4.07;;
38132;SDS011;23948;43.252;26.572;2022-08-25T11:45:48;20.55;;;4.03;;
38132;SDS011;23948;43.252;26.572;2022-08-25T11:48:24;13.32;;;3.63;;
38132;SDS011;23948;43.252;26.572;2022-08-25T11:53:30;25.27;;;4.03;;
38132;SDS011;23948;43.252;26.572;2022-08-25T11:56:41;23.63;;;4.32;;
38132;SDS011;23948;43.252;26.572;2022-08-25T11:58:48;18.27;;;4.50;;
38132;SDS011;23948;43.252;26.572;2022-08-25T12:04:13;15.07;;;3.78;;
38132;SDS011;23948;43.252;26.572;2022-08-25T12:09:25;19.80;;;3.90;;
38132;SDS011;23948;43.252;26.572;2022-08-25T12:11:51;16.83;;;3.87;;
38132;SDS011;23948;43.252;26.572;2022-08-25T12:19:26;14.82;;;3.88;;
38132;SDS011;23948;43.252;26.572;2022-08-25T12:21:52;24.77;;;4.03;;
38132;SDS011;23948;43.252;26.572;2022-08-25T12:24:24;17.48;;;3.70;;
38132;SDS011;23948;43.252;26.572;2022-08-25T12:27:00;19.83;;;4.32;;
38132;SDS011;23948;43.252;26.572;2022-08-25T12:37:14;16.33;;;4.07;;
38132;SDS011;23948;43.252;26.572;2022-08-25T12:39:56;17.70;;;4.47;;
38132;SDS011;23948;43.252;26.572;2022-08-25T12:47:38;21.65;;;4.10;;
38132;SDS011;23948;43.252;26.572;2022-08-25T12:52:48;19.95;;;4.38;;
38132;SDS011;23948;43.252;26.572;2022-08-25T12:55:13;18.17;;;4.50;;
38132;SDS011;23948;43.252;26.572;2022-08-25T12:57:44;21.92;;;4.70;;
38132;SDS011;23948;43.252;26.572;2022-08-25T13:00:28;19.20;;;4.63;;
38132;SDS011;23948;43.252;26.572;2022-08-25T13:03:03;26.08;;;5.55;;
38132;SDS011;23948;43.252;26.572;2022-08-25T13:05:41;25.13;;;4.95;;
38132;SDS011;23948;43.252;26.572;2022-08-25T13:08:18;27.48;;;4.80;;
38132;SDS011;23948;43.252;26.572;2022-08-25T13:15:44;19.73;;;4.80;;
38132;SDS011;23948;43.252;26.572;2022-08-25T13:20:52;20.30;;;4.30;;
38132;SDS011;23948;43.252;26.572;2022-08-25T13:23:26;23.55;;;5.03;;
38132;SDS011;23948;43.252;26.572;2022-08-25T13:25:52;27.20;;;5.03;;
38132;SDS011;23948;43.252;26.572;2022-08-25T13:28:31;21.92;;;5.10;;
38132;SDS011;23948;43.252;26.572;2022-08-25T13:30:58;27.92;;;4.88;;
38132;SDS011;23948;43.252;26.572;2022-08-25T13:33:24;24.95;;;4.90;;
38132;SDS011;23948;43.252;26.572;2022-08-25T13:35:51;28.35;;;5.22;;
38132;SDS011;23948;43.252;26.572;2022-08-25T13:38:37;23.85;;;5.03;;
38132;SDS011;23948;43.252;26.572;2022-08-25T13:41:03;27.08;;;4.63;;
38132;SDS011;23948;43.252;26.572;2022-08-25T13:43:28;23.70;;;4.85;;
38132;SDS011;23948;43.252;26.572;2022-08-25T13:45:54;24.58;;;4.53;;
38132;SDS011;23948;43.252;26.572;2022-08-25T13:48:31;23.67;;;4.63;;
38132;SDS011;23948;43.252;26.572;2022-08-25T13:51:05;29.58;;;5.63;;
38132;SDS011;23948;43.252;26.572;2022-08-25T13:53:31;18.33;;;4.75;;
38132;SDS011;23948;43.252;26.572;2022-08-25T13:55:57;31.60;;;5.47;;
38132;SDS011;23948;43.252;26.572;2022-08-25T13:58:23;28.00;;;5.43;;
38132;SDS011;23948;43.252;26.572;2022-08-25T14:03:37;25.90;;;5.30;;
38132;SDS011;23948;43.252;26.572;2022-08-25T14:06:08;28.92;;;5.82;;
38132;SDS011;23948;43.252;26.572;2022-08-25T14:08:35;31.38;;;5.10;;
38132;SDS011;23948;43.252;26.572;2022-08-25T14:11:05;36.33;;;6.28;;
38132;SDS011;23948;43.252;26.572;2022-08-25T14:13:31;24.77;;;5.20;;
38132;SDS011;23948;43.252;26.572;2022-08-25T14:18:38;37.80;;;5.65;;
38132;SDS011;23948;43.252;26.572;2022-08-25T14:21:08;25.80;;;5.82;;
38132;SDS011;23948;43.252;26.572;2022-08-25T14:23:34;25.85;;;5.47;;
38132;SDS011;23948;43.252;26.572;2022-08-25T14:26:00;32.47;;;5.18;;
38132;SDS011;23948;43.252;26.572;2022-08-25T14:28:26;42.28;;;6.38;;
38132;SDS011;23948;43.252;26.572;2022-08-25T14:30:54;36.42;;;6.15;;
38132;SDS011;23948;43.252;26.572;2022-08-25T14:33:21;42.40;;;6.28;;
38132;SDS011;23948;43.252;26.572;2022-08-25T14:35:48;31.25;;;5.85;;
38132;SDS011;23948;43.252;26.572;2022-08-25T14:38:15;29.03;;;6.20;;
38132;SDS011;23948;43.252;26.572;2022-08-25T14:40:41;45.20;;;6.40;;
38132;SDS011;23948;43.252;26.572;2022-08-25T14:43:06;35.23;;;6.27;;
38132;SDS011;23948;43.252;26.572;2022-08-25T14:45:32;29.55;;;5.40;;
38132;SDS011;23948;43.252;26.572;2022-08-25T14:48:02;27.95;;;5.45;;
38132;SDS011;23948;43.252;26.572;2022-08-25T14:50:28;34.95;;;5.88;;
38132;SDS011;23948;43.252;26.572;2022-08-25T14:52:53;38.90;;;6.97;;
38132;SDS011;23948;43.252;26.572;2022-08-25T14:55:19;30.58;;;5.47;;
38132;SDS011;23948;43.252;26.572;2022-08-25T14:57:44;32.38;;;5.63;;
38132;SDS011;23948;43.252;26.572;2022-08-25T15:00:10;39.70;;;6.32;;
38132;SDS011;23948;43.252;26.572;2022-08-25T15:02:37;40.50;;;6.60;;
38132;SDS011;23948;43.252;26.572;2022-08-25T15:05:03;35.65;;;6.50;;
38132;SDS011;23948;43.252;26.572;2022-08-25T15:07:31;46.75;;;6.43;;
38132;SDS011;23948;43.252;26.572;2022-08-25T15:10:15;39.05;;;6.10;;
38132;SDS011;23948;43.252;26.572;2022-08-25T15:12:48;47.05;;;7.20;;
38132;SDS011;23948;43.252;26.572;2022-08-25T15:15:14;47.08;;;6.35;;
38132;SDS011;23948;43.252;26.572;2022-08-25T15:17:44;37.55;;;5.40;;
38132;SDS011;23948;43.252;26.572;2022-08-25T15:20:11;36.97;;;6.43;;
38132;SDS011;23948;43.252;26.572;2022-08-25T15:22:36;35.47;;;6.15;;
38132;SDS011;23948;43.252;26.572;2022-08-25T15:25:01;40.30;;;6.40;;
38132;SDS011;23948;43.252;26.572;2022-08-25T15:27:26;48.85;;;7.03;;
38132;SDS011;23948;43.252;26.572;2022-08-25T15:29:52;32.88;;;6.30;;
38132;SDS011;23948;43.252;26.572;2022-08-25T15:32:17;33.67;;;6.03;;
38132;SDS011;23948;43.252;26.572;2022-08-25T15:34:43;42.05;;;6.55;;
38132;SDS011;23948;43.252;26.572;2022-08-25T15:37:12;35.90;;;6.15;;
38132;SDS011;23948;43.252;26.572;2022-08-25T15:39:39;40.13;;;6.15;;
38132;SDS011;23948;43.252;26.572;2022-08-25T15:42:05;33.85;;;5.85;;
38132;SDS011;23948;43.252;26.572;2022-08-25T15:44:33;31.90;;;5.75;;
38132;SDS011;23948;43.252;26.572;2022-08-25T15:46:59;28.23;;;4.95;;
38132;SDS011;23948;43.252;26.572;2022-08-25T15:49:25;31.20;;;5.50;;
38132;SDS011;23948;43.252;26.572;2022-08-25T15:51:51;32.85;;;6.07;;
38132;SDS011;23948;43.252;26.572;2022-08-25T15:54:17;36.80;;;6.22;;
38132;SDS011;23948;43.252;26.572;2022-08-25T15:56:42;36.22;;;6.32;;
38132;SDS011;23948;43.252;26.572;2022-08-25T15:59:08;33.80;;;6.05;;
38132;SDS011;23948;43.252;26.572;2022-08-25T16:01:34;35.83;;;6.50;;
38132;SDS011;23948;43.252;26.572;2022-08-25T16:03:59;37.40;;;6.00;;
38132;SDS011;23948;43.252;26.572;2022-08-25T16:06:25;41.88;;;5.30;;
38132;SDS011;23948;43.252;26.572;2022-08-25T16:08:50;42.20;;;6.78;;
38132;SDS011;23948;43.252;26.572;2022-08-25T16:11:17;36.20;;;6.15;;
38132;SDS011;23948;43.252;26.572;2022-08-25T16:13:43;36.55;;;6.63;;
38132;SDS011;23948;43.252;26.572;2022-08-25T16:16:09;39.40;;;6.68;;